Time;durP1;ratioP1;P1;durP2;ratioP2;P2;SDS_P1;SDS_P2;PMS_P1;PMS_P2;Temp;Humidity;BMP_temperature;BMP_pressure;BME280_temperature;BME280_humidity;BME280_pressure;Samples;Min_cycle;Max_cycle;Signal;HPM_P1;HPM_P2
2022/06/14 00:00:54;;;;;;;;;;;;;;;;;;1049236;28;4243;-46
2022/06/14 00:01:43;;;;;;;;;;;;;;;;;;1049944;28;4282;-48
2022/06/14 00:02:32;;;;;;;;;;;;;;;;;;1049652;28;3947;-44
2022/06/14 00:03:21;;;;;;;;;;;;;;;;;;1048779;28;3780;-49
2022/06/14 00:04:10;;;;;;;;;;;;;;;;;;1048789;28;4045;-51
2022/06/14 00:04:59;;;;;;;;;;;;;;;;;;1048661;28;3855;-47
2022/06/14 00:05:48;;;;;;;;;;;;;;;;;;1050327;28;4275;-46
2022/06/14 00:06:37;;;;;;;;;;;;;;;;;;1048653;28;4145;-48
2022/06/14 00:07:08;;;;;;;;;;;;;;;;;;1050466;28;3742;-49
2022/06/14 00:07:38;;;;;;;;;;;;;;;;;;1047504;28;3919;-46
2022/06/14 00:08:09;;;;;;;;;;;;;;;;;;1049691;28;3762;-48
2022/06/14 00:08:39;;;;;;;;;;;;;;;;;;1049984;28;3949;-44
2022/06/14 00:09:10;;;;;;;;;;;;;;;;;;1048291;28;3789;-48
2022/06/14 00:09:40;;;;;;;;;;;;;;;;;;1047916;28;3893;-46
2022/06/14 00:10:10;;;;;;;;;;;;;;;;;;1048447;28;4205;-44
2022/06/14 00:10:41;;;;;;;;;;;;;;;;;;1044470;28;4032;-46
2022/06/14 00:11:16;;;;;;;;;;;;;;;;;;1046486;28;3747;-48
2022/06/14 00:11:46;;;;;;;;;;;;;;;;;;1041069;28;3925;-49
2022/06/14 00:12:16;;;;;;;;;;;;;;;;;;1041203;28;3195;-44
2022/06/14 00:12:47;;;;;;;;;;;;;;;;;;1045829;28;4281;-49
2022/06/14 00:13:17;;;;;;;;;;;;;;;;;;1045594;28;2859;-46
2022/06/14 00:13:48;;;;;;;;;;;;;;;;;;1050110;27;4106;-45
2022/06/14 00:14:19;;;;;;;;;;;;;;;;;;1049068;27;5552;-48
2022/06/14 00:14:49;;;;;;;;;;;;;;;;;;1051437;28;3851;-47
2022/06/14 00:15:19;;;;;;;;;;;;;;;;;;1050153;27;3272;-45
2022/06/14 00:15:50;;;;;;;;;;;;;;;;;;1050893;28;3813;-47
2022/06/14 00:16:21;;;;;;;;;;;;;;;;;;1050318;28;3796;-46
2022/06/14 00:16:51;;;;;;;;;;;;;;;;;;1049908;28;4081;-49
2022/06/14 00:17:22;;;;;;;;;;;;;;;;;;1049933;28;3005;-48
2022/06/14 00:17:52;;;;;;;;;;;;;;;;;;1050046;28;3880;-49
2022/06/14 00:18:22;;;;;;;;;;;;;;;;;;1050886;28;1697;-51
2022/06/14 00:18:53;;;;;;;;;;;;;;;;;;1050733;27;4247;-46
2022/06/14 00:19:23;;;;;;;;;;;;;;;;;;1050144;28;3416;-47
2022/06/14 00:19:53;;;;;;;;;;;;;;;;;;1049680;28;4027;-47
2022/06/14 00:20:24;;;;;;;;;;;;;;;;;;1051583;28;2989;-47
2022/06/14 00:20:54;;;;;;;;;;;;;;;;;;1050327;27;3748;-48
2022/06/14 00:21:24;;;;;;;;;;;;;;;;;;1050668;28;4004;-48
2022/06/14 00:21:56;;;;;;;;;;;;;;;;;;1049760;28;4083;-51
2022/06/14 00:22:27;;;;;;;;;;;;;;;;;;1050406;28;3732;-50
2022/06/14 00:22:57;;;;;;;;;;;;;;;;;;1050503;27;4180;-50
2022/06/14 00:23:28;;;;;;;;;;;;;;;;;;1050928;28;3822;-45
2022/06/14 00:23:59;;;;;;;;;;;;;;;;;;1050214;27;3815;-46
2022/06/14 00:24:36;;;;;;;;;;;;;;;;;;1050090;28;4183;-45
2022/06/14 00:25:07;;;;;;;;;;;;;;;;;;1050796;28;1660;-50
2022/06/14 00:25:39;;;;;;;;;;;;;;;;;;1047728;28;3979;-47
2022/06/14 00:26:11;;;;;;;;;;;;;;;;;;1046505;28;1985;-46
2022/06/14 00:26:42;;;;;;;;;;;;;;;;;;1047869;28;3887;-49
2022/06/14 00:27:12;;;;;;;;;;;;;;;;;;1046950;28;3292;-47
2022/06/14 00:27:42;;;;;;;;;;;;;;;;;;1046613;28;4028;-50
2022/06/14 00:28:14;;;;;;;;;;;;;;;;;;1050644;27;3757;-47
2022/06/14 00:28:45;;;;;;;;;;;;;;;;;;1050038;28;3782;-46
2022/06/14 00:29:15;;;;;;;;;;;;;;;;;;1051862;28;1861;-47
2022/06/14 00:29:45;;;;;;;;;;;;;;;;;;1049171;27;3759;-46
2022/06/14 00:30:16;;;;;;;;;;;;;;;;;;1049440;28;3794;-47
2022/06/14 00:30:47;;;;;;;;;;;;;;;;;;1051171;28;4203;-47
2022/06/14 00:31:19;;;;;;;;;;;;;;;;;;1045931;28;3786;-47
2022/06/14 00:31:50;;;;;;;;;;;;;;;;;;1046069;28;4217;-51
2022/06/14 00:32:20;;;;;;;;;;;;;;;;;;1047336;28;3599;-51
2022/06/14 00:32:51;;;;;;;;;;;;;;;;;;1046825;28;3765;-45
2022/06/14 00:33:21;;;;;;;;;;;;;;;;;;1051279;28;1377;-46
2022/06/14 00:34:05;;;;;;;;;;;;;;;;;;1049101;28;3935;-46
2022/06/14 00:34:36;;;;;;;;;;;;;;;;;;1048977;28;3872;-48
2022/06/14 00:35:07;;;;;;;;;;;;;;;;;;1051559;28;2353;-47
2022/06/14 00:35:38;;;;;;;;;;;;;;;;;;1049173;28;3891;-47
2022/06/14 00:36:10;;;;;;;;;;;;;;;;;;1049840;28;2916;-51
2022/06/14 00:36:49;;;;;;;;;;;;;;;;;;1050099;28;3852;-48
2022/06/14 00:37:20;;;;;;;;;;;;;;;;;;1049316;28;3733;-48
2022/06/14 00:37:58;;;;;;;;;;;;;;;;;;1049537;28;4213;-47
2022/06/14 00:38:29;;;;;;;;;;;;;;;;;;1052072;28;3021;-47
2022/06/14 00:39:01;;;;;;;;;;;;;;;;;;1050118;27;4148;-47
2022/06/14 00:39:31;;;;;;;;;;;;;;;;;;1051035;28;3790;-48
2022/06/14 00:40:08;;;;;;;;;;;;;;;;;;1048826;28;3631;-49
2022/06/14 00:40:39;;;;;;;;;;;;;;;;;;1049260;28;3889;-51
2022/06/14 00:41:26;;;;;;;;;;;;;;;;;;1049585;28;3734;-49
2022/06/14 00:41:56;;;;;;;;;;;;;;;;;;1050203;28;3844;-49
2022/06/14 00:42:26;;;;;;;;;;;;;;;;;;1051328;28;2933;-48
2022/06/14 00:42:57;;;;;;;;;;;;;;;;;;1050315;28;3848;-43
2022/06/14 00:43:29;;;;;;;;;;;;;;;;;;1050639;28;1813;-48
2022/06/14 00:44:00;;;;;;;;;;;;;;;;;;1050538;28;4113;-51
2022/06/14 00:44:30;;;;;;;;;;;;;;;;;;1049175;28;4337;-45
2022/06/14 00:45:02;;;;;;;;;;;;;;;;;;1050524;28;3778;-45
2022/06/14 00:45:35;;;;;;;;;;;;;;;;;;1050036;28;3891;-47
2022/06/14 00:46:10;;;;;;;;;;;;;;;;;;1051321;27;1956;-50
2022/06/14 00:46:51;;;;;;;;;;;;;;;;;;1049952;27;3853;-48
2022/06/14 00:47:21;;;;;;;;;;;;;;;;;;1046411;28;1868;-51
2022/06/14 00:48:02;;;;;;;;;;;;;;;;;;1046671;28;4286;-44
2022/06/14 00:48:33;;;;;;;;;;;;;;;;;;1045697;28;3915;-47
2022/06/14 00:49:12;;;;;;;;;;;;;;;;;;1046872;28;3589;-49
2022/06/14 00:49:42;;;;;;;;;;;;;;;;;;1051492;28;3958;-46
2022/06/14 00:50:18;;;;;;;;;;;;;;;;;;1050529;28;2769;-47
2022/06/14 00:50:54;;;;;;;;;;;;;;;;;;1050697;28;3730;-49
2022/06/14 00:51:30;;;;;;;;;;;;;;;;;;1048910;28;3666;-46
2022/06/14 00:52:02;;;;;;;;;;;;;;;;;;1050399;28;3810;-48
2022/06/14 00:52:36;;;;;;;;;;;;;;;;;;1049778;28;3944;-46
2022/06/14 00:53:13;;;;;;;;;;;;;;;;;;1049672;28;1977;-47
2022/06/14 00:54:04;;;;;;;;;;;;;;;;;;1049334;28;4030;-51
2022/06/14 00:54:37;;;;;;;;;;;;;;;;;;1041761;28;4078;-45
2022/06/14 00:55:13;;;;;;;;;;;;;;;;;;1050397;28;3496;-49
2022/06/14 00:55:46;;;;;;;;;;;;;;;;;;1050149;28;5199;-45
2022/06/14 00:56:20;;;;;;;;;;;;;;;;;;1050527;28;2935;-49
2022/06/14 00:56:52;;;;;;;;;;;;;;;;;;1043719;28;4113;-51
2022/06/14 00:57:33;;;;;;;;;;;;;;;;;;1046594;28;3920;-47
2022/06/14 00:58:16;;;;;;;;;;;;;;;;;;1046541;28;4811;-44
2022/06/14 00:58:50;;;;;;;;;;;;;;;;;;1048989;28;4251;-46
2022/06/14 00:59:22;;;;;;;;;;;;;;;;;;1050431;28;1373;-45
2022/06/14 01:00:04;;;;;;;;;;;;;;;;;;1050709;27;3865;-50
2022/06/14 01:00:40;;;;;;;;;;;;;;;;;;1049994;28;4151;-47
2022/06/14 01:01:13;;;;;;;;;;;;;;;;;;1051600;27;3935;-47
2022/06/14 01:01:44;;;;;;;;;;;;;;;;;;1049950;28;4040;-54
2022/06/14 01:02:20;;;;;;;;;;;;;;;;;;1050993;28;3062;-48
2022/06/14 01:02:52;;;;;;;;;;;;;;;;;;1051207;28;3794;-46
2022/06/14 01:03:23;;;;;;;;;;;;;;;;;;1052110;28;2054;-48
2022/06/14 01:03:58;;;;;;;;;;;;;;;;;;1046884;28;4035;-46
2022/06/14 01:04:29;;;;;;;;;;;;;;;;;;1045701;28;3494;-45
2022/06/14 01:05:00;;;;;;;;;;;;;;;;;;1040817;28;3826;-48
2022/06/14 01:06:48;;;;;;;;;;;;;;;;;;1045336;28;4231;-46
2022/06/14 01:07:21;;;;;;;;;;;;;;;;;;1050515;28;2358;-49
2022/06/14 01:07:54;;;;;;;;;;;;;;;;;;1049257;28;3774;-47
2022/06/14 01:08:25;;;;;;;;;;;;;;;;;;1050302;28;2113;-44
2022/06/14 01:08:58;;;;;;;;;;;;;;;;;;1050841;28;3856;-45
2022/06/14 01:09:32;;;;;;;;;;;;;;;;;;1051018;28;1646;-48
2022/06/14 01:10:05;;;;;;;;;;;;;;;;;;1050260;27;3834;-47
2022/06/14 01:10:35;;;;;;;;;;;;;;;;;;1050347;28;4222;-45
2022/06/14 01:11:07;;;;;;;;;;;;;;;;;;1051327;28;3649;-45
2022/06/14 01:11:41;;;;;;;;;;;;;;;;;;1050442;28;3900;-46
2022/06/14 01:12:16;;;;;;;;;;;;;;;;;;1050368;28;3788;-47
2022/06/14 01:12:47;;;;;;;;;;;;;;;;;;1048683;28;3881;-46
2022/06/14 01:13:19;;;;;;;;;;;;;;;;;;1048100;28;3918;-46
2022/06/14 01:13:49;;;;;;;;;;;;;;;;;;1050776;28;3918;-45
2022/06/14 01:14:22;;;;;;;;;;;;;;;;;;1052763;27;3966;-46
2022/06/14 01:14:57;;;;;;;;;;;;;;;;;;1050970;28;3895;-47
2022/06/14 01:15:29;;;;;;;;;;;;;;;;;;1050306;28;3028;-46
2022/06/14 01:15:59;;;;;;;;;;;;;;;;;;1048245;28;3692;-46
2022/06/14 01:16:31;;;;;;;;;;;;;;;;;;1047918;28;3870;-45
2022/06/14 01:17:01;;;;;;;;;;;;;;;;;;1049423;28;3695;-49
2022/06/14 01:17:42;;;;;;;;;;;;;;;;;;1050665;28;3784;-45
2022/06/14 01:18:14;;;;;;;;;;;;;;;;;;1051285;28;2028;-47
2022/06/14 01:18:45;;;;;;;;;;;;;;;;;;1049415;28;3899;-45
2022/06/14 01:19:18;;;;;;;;;;;;;;;;;;1050633;28;2057;-46
2022/06/14 01:19:48;;;;;;;;;;;;;;;;;;1049844;28;3963;-53
2022/06/14 01:20:20;;;;;;;;;;;;;;;;;;1049450;28;2925;-46
2022/06/14 01:20:50;;;;;;;;;;;;;;;;;;1051434;27;3849;-50
2022/06/14 01:21:21;;;;;;;;;;;;;;;;;;1050377;27;3776;-48
2022/06/14 01:21:52;;;;;;;;;;;;;;;;;;1050473;28;3752;-48
2022/06/14 01:22:30;;;;;;;;;;;;;;;;;;1051425;27;3024;-49
2022/06/14 01:23:01;;;;;;;;;;;;;;;;;;1050209;28;3939;-47
2022/06/14 01:23:31;;;;;;;;;;;;;;;;;;1054761;27;4079;-47
2022/06/14 01:24:02;;;;;;;;;;;;;;;;;;1054311;27;3118;-47
2022/06/14 01:24:33;;;;;;;;;;;;;;;;;;1053235;27;4326;-49
2022/06/14 01:25:04;;;;;;;;;;;;;;;;;;1055027;27;3415;-47
2022/06/14 01:25:40;;;;;;;;;;;;;;;;;;1049929;28;3783;-43
2022/06/14 01:26:14;;;;;;;;;;;;;;;;;;1050153;28;3655;-48
2022/06/14 01:26:44;;;;;;;;;;;;;;;;;;1049873;28;4386;-44
2022/06/14 01:27:16;;;;;;;;;;;;;;;;;;1049942;28;2965;-50
2022/06/14 01:27:46;;;;;;;;;;;;;;;;;;1049924;28;3888;-52
2022/06/14 01:28:18;;;;;;;;;;;;;;;;;;1050539;28;3699;-46
2022/06/14 01:28:53;;;;;;;;;;;;;;;;;;1049752;28;3814;-49
2022/06/14 01:29:24;;;;;;;;;;;;;;;;;;1050658;28;3755;-47
2022/06/14 01:29:57;;;;;;;;;;;;;;;;;;1050335;28;3863;-53
2022/06/14 01:30:31;;;;;;;;;;;;;;;;;;1051227;28;3751;-48
2022/06/14 01:31:02;;;;;;;;;;;;;;;;;;1049591;27;3841;-50
2022/06/14 01:31:33;;;;;;;;;;;;;;;;;;1050844;27;3854;-49
2022/06/14 01:32:05;;;;;;;;;;;;;;;;;;1048657;28;2702;-47
2022/06/14 01:32:47;;;;;;;;;;;;;;;;;;1041466;28;4242;-46
2022/06/14 01:33:30;;;;;;;;;;;;;;;;;;1042368;28;1172;-46
2022/06/14 01:34:14;;;;;;;;;;;;;;;;;;1044534;28;4079;-50
2022/06/14 01:34:48;;;;;;;;;;;;;;;;;;1045251;28;4218;-46
2022/06/14 01:35:24;;;;;;;;;;;;;;;;;;1046576;28;3705;-45
2022/06/14 01:35:56;;;;;;;;;;;;;;;;;;1044862;28;3880;-46
2022/06/14 01:36:29;;;;;;;;;;;;;;;;;;1046773;28;3890;-47
2022/06/14 01:36:59;;;;;;;;;;;;;;;;;;1044956;28;3854;-50
2022/06/14 01:37:30;;;;;;;;;;;;;;;;;;1046280;28;3832;-49
2022/06/14 01:38:02;;;;;;;;;;;;;;;;;;1045118;28;4313;-44
2022/06/14 01:38:32;;;;;;;;;;;;;;;;;;1046880;28;4324;-47
2022/06/14 01:39:04;;;;;;;;;;;;;;;;;;1047363;28;3711;-44
2022/06/14 01:39:36;;;;;;;;;;;;;;;;;;1048564;28;4274;-46
2022/06/14 01:40:07;;;;;;;;;;;;;;;;;;1046630;28;3584;-48
2022/06/14 01:40:40;;;;;;;;;;;;;;;;;;1046484;28;3914;-48
2022/06/14 01:41:29;;;;;;;;;;;;;;;;;;1045838;28;2906;-48
2022/06/14 01:42:05;;;;;;;;;;;;;;;;;;1046292;28;3915;-47
2022/06/14 01:42:41;;;;;;;;;;;;;;;;;;1046080;28;3779;-46
2022/06/14 01:43:11;;;;;;;;;;;;;;;;;;1046255;28;3786;-51
2022/06/14 01:43:59;;;;;;;;;;;;;;;;;;1046741;28;4088;-49
2022/06/14 01:44:54;;;;;;;;;;;;;;;;;;1045872;28;2769;-50
2022/06/14 01:45:43;;;;;;;;;;;;;;;;;;1045046;28;3831;-46
2022/06/14 01:46:23;;;;;;;;;;;;;;;;;;1045327;28;3664;-50
2022/06/14 01:47:00;;;;;;;;;;;;;;;;;;1044756;28;4224;-44
2022/06/14 01:47:42;;;;;;;;;;;;;;;;;;1045203;28;3831;-49
2022/06/14 01:48:12;;;;;;;;;;;;;;;;;;1046207;28;3590;-48
2022/06/14 01:48:45;;;;;;;;;;;;;;;;;;1044920;28;3959;-47
2022/06/14 01:52:22;;;;;;;;;;;;;;;;;;1046489;28;3665;-47
2022/06/14 01:52:59;;;;;;;;;;;;;;;;;;1045735;28;4283;-45
2022/06/14 01:53:36;;;;;;;;;;;;;;;;;;1045490;28;3923;-52
2022/06/14 01:54:21;;;;;;;;;;;;;;;;;;1045958;28;3754;-49
2022/06/14 01:54:55;;;;;;;;;;;;;;;;;;1045621;28;3778;-51
2022/06/14 01:55:38;;;;;;;;;;;;;;;;;;1045857;28;4066;-51
2022/06/14 01:56:28;;;;;;;;;;;;;;;;;;1045709;28;3755;-48
2022/06/14 01:57:04;;;;;;;;;;;;;;;;;;1045120;28;4164;-44
2022/06/14 01:57:44;;;;;;;;;;;;;;;;;;1046280;28;4307;-47
2022/06/14 01:58:32;;;;;;;;;;;;;;;;;;1046289;28;3732;-53
2022/06/14 01:59:18;;;;;;;;;;;;;;;;;;1045337;28;3817;-48
2022/06/14 01:59:58;;;;;;;;;;;;;;;;;;1045074;28;4246;-44
2022/06/14 02:00:31;;;;;;;;;;;;;;;;;;1044805;28;3764;-51
2022/06/14 02:01:19;;;;;;;;;;;;;;;;;;1045923;28;3816;-46
2022/06/14 02:02:03;;;;;;;;;;;;;;;;;;1044334;28;4050;-49
2022/06/14 02:02:45;;;;;;;;;;;;;;;;;;1045290;28;4270;-47
2022/06/14 02:04:43;;;;;;;;;;;;;;;;;;1045109;28;3828;-46
2022/06/14 02:05:23;;;;;;;;;;;;;;;;;;1046227;28;3696;-49
2022/06/14 02:05:59;;;;;;;;;;;;;;;;;;1045282;28;3771;-46
2022/06/14 02:06:32;;;;;;;;;;;;;;;;;;1046423;28;3567;-49
2022/06/14 02:07:03;;;;;;;;;;;;;;;;;;1045144;28;3858;-46
2022/06/14 02:07:35;;;;;;;;;;;;;;;;;;1045610;28;3870;-45
2022/06/14 02:08:17;;;;;;;;;;;;;;;;;;1046195;28;3289;-50
2022/06/14 02:09:07;;;;;;;;;;;;;;;;;;1045259;28;3912;-50
2022/06/14 02:09:43;;;;;;;;;;;;;;;;;;1046009;28;4202;-47
2022/06/14 02:10:32;;;;;;;;;;;;;;;;;;1046070;28;3623;-45
2022/06/14 02:11:12;;;;;;;;;;;;;;;;;;1046595;28;3750;-47
2022/06/14 02:11:42;;;;;;;;;;;;;;;;;;1046504;28;3865;-50
2022/06/14 02:12:15;;;;;;;;;;;;;;;;;;1046867;28;2867;-50
2022/06/14 02:12:55;;;;;;;;;;;;;;;;;;1045892;28;3900;-50
2022/06/14 02:13:25;;;;;;;;;;;;;;;;;;1048189;28;2207;-47
2022/06/14 02:13:58;;;;;;;;;;;;;;;;;;1047815;28;3846;-47
2022/06/14 02:14:33;;;;;;;;;;;;;;;;;;1045894;28;4073;-48
2022/06/14 02:15:09;;;;;;;;;;;;;;;;;;1045899;28;4023;-49
2022/06/14 02:15:52;;;;;;;;;;;;;;;;;;1045482;28;4229;-46
2022/06/14 02:16:37;;;;;;;;;;;;;;;;;;1045809;28;3678;-48
2022/06/14 02:17:09;;;;;;;;;;;;;;;;;;1046273;28;3777;-43
2022/06/14 02:17:43;;;;;;;;;;;;;;;;;;1044931;28;3992;-49
2022/06/14 02:18:17;;;;;;;;;;;;;;;;;;1046089;28;1997;-45
2022/06/14 02:18:53;;;;;;;;;;;;;;;;;;1045052;28;4234;-46
2022/06/14 02:19:23;;;;;;;;;;;;;;;;;;1054630;27;1751;-48
2022/06/14 02:19:59;;;;;;;;;;;;;;;;;;1053306;27;4052;-44
2022/06/14 02:20:40;;;;;;;;;;;;;;;;;;1053209;27;3687;-46
2022/06/14 02:21:10;;;;;;;;;;;;;;;;;;1050019;28;3769;-50
2022/06/14 02:21:55;;;;;;;;;;;;;;;;;;1046375;28;3831;-49
2022/06/14 02:22:29;;;;;;;;;;;;;;;;;;1045253;28;3854;-46
2022/06/14 02:23:04;;;;;;;;;;;;;;;;;;1045089;28;3764;-46
2022/06/14 02:23:39;;;;;;;;;;;;;;;;;;1044137;28;3799;-48
2022/06/14 02:24:09;;;;;;;;;;;;;;;;;;1046338;28;4007;-50
2022/06/14 02:24:43;;;;;;;;;;;;;;;;;;1043682;28;3950;-45
2022/06/14 02:25:23;;;;;;;;;;;;;;;;;;1048556;28;3748;-47
2022/06/14 02:25:58;;;;;;;;;;;;;;;;;;1045922;28;3771;-45
2022/06/14 02:26:31;;;;;;;;;;;;;;;;;;1045582;28;3788;-48
2022/06/14 02:27:09;;;;;;;;;;;;;;;;;;1045981;28;3818;-43
2022/06/14 02:27:52;;;;;;;;;;;;;;;;;;1046001;28;4460;-46
2022/06/14 02:28:28;;;;;;;;;;;;;;;;;;1046157;28;1661;-46
2022/06/14 02:29:19;;;;;;;;;;;;;;;;;;1044254;28;4193;-46
2022/06/14 02:29:52;;;;;;;;;;;;;;;;;;1045487;28;4227;-45
2022/06/14 02:30:27;;;;;;;;;;;;;;;;;;1045900;28;2230;-47
2022/06/14 02:31:00;;;;;;;;;;;;;;;;;;1046259;28;4215;-48
2022/06/14 02:31:37;;;;;;;;;;;;;;;;;;1045890;28;3874;-46
2022/06/14 02:32:09;;;;;;;;;;;;;;;;;;1046094;28;3917;-46
2022/06/14 02:32:44;;;;;;;;;;;;;;;;;;1045541;28;3907;-49
2022/06/14 02:33:28;;;;;;;;;;;;;;;;;;1047551;28;1715;-48
2022/06/14 02:34:23;;;;;;;;;;;;;;;;;;1046202;28;4492;-50
2022/06/14 02:35:04;;;;;;;;;;;;;;;;;;1045823;28;3811;-48
2022/06/14 02:35:45;;;;;;;;;;;;;;;;;;1045243;28;3824;-47
2022/06/14 02:36:17;;;;;;;;;;;;;;;;;;1046049;28;1740;-45
2022/06/14 02:36:52;;;;;;;;;;;;;;;;;;1048938;28;3807;-46
2022/06/14 02:37:23;;;;;;;;;;;;;;;;;;1051262;28;1842;-48
2022/06/14 02:38:07;;;;;;;;;;;;;;;;;;1050396;28;3892;-50
2022/06/14 02:38:39;;;;;;;;;;;;;;;;;;1044714;28;3913;-48
2022/06/14 02:39:12;;;;;;;;;;;;;;;;;;1045357;28;2837;-45
2022/06/14 02:39:47;;;;;;;;;;;;;;;;;;1045025;28;3829;-49
2022/06/14 02:40:24;;;;;;;;;;;;;;;;;;1047531;28;1910;-47
2022/06/14 02:41:00;;;;;;;;;;;;;;;;;;1049982;28;3783;-47
2022/06/14 02:41:33;;;;;;;;;;;;;;;;;;1049501;28;3883;-47
2022/06/14 02:42:10;;;;;;;;;;;;;;;;;;1048965;28;2765;-45
2022/06/14 02:42:47;;;;;;;;;;;;;;;;;;1049212;28;3797;-51
2022/06/14 02:43:29;;;;;;;;;;;;;;;;;;1049570;28;1841;-44
2022/06/14 02:44:02;;;;;;;;;;;;;;;;;;1048893;28;3747;-46
2022/06/14 02:44:35;;;;;;;;;;;;;;;;;;1049653;28;4508;-44
2022/06/14 02:45:09;;;;;;;;;;;;;;;;;;1050841;28;4187;-46
2022/06/14 02:45:42;;;;;;;;;;;;;;;;;;1050354;28;4015;-49
2022/06/14 02:46:15;;;;;;;;;;;;;;;;;;1050096;28;2282;-44
2022/06/14 02:47:07;;;;;;;;;;;;;;;;;;1045336;28;4276;-47
2022/06/14 02:47:40;;;;;;;;;;;;;;;;;;1041078;28;4248;-47
2022/06/14 02:48:14;;;;;;;;;;;;;;;;;;1041435;28;3562;-47
2022/06/14 02:48:49;;;;;;;;;;;;;;;;;;1044531;28;4243;-43
2022/06/14 02:49:42;;;;;;;;;;;;;;;;;;1046893;28;2885;-47
2022/06/14 02:50:15;;;;;;;;;;;;;;;;;;1045666;28;3690;-51
2022/06/14 02:50:50;;;;;;;;;;;;;;;;;;1046433;28;3821;-48
2022/06/14 02:51:27;;;;;;;;;;;;;;;;;;1046594;28;2107;-46
2022/06/14 02:52:16;;;;;;;;;;;;;;;;;;1052030;28;3771;-47
2022/06/14 02:52:51;;;;;;;;;;;;;;;;;;1054464;27;5088;-46
2022/06/14 02:53:28;;;;;;;;;;;;;;;;;;1053611;27;3689;-47
2022/06/14 02:54:04;;;;;;;;;;;;;;;;;;1051132;28;3689;-42
2022/06/14 02:54:57;;;;;;;;;;;;;;;;;;1049480;28;4029;-47
2022/06/14 02:55:49;;;;;;;;;;;;;;;;;;1050148;28;4081;-45
2022/06/14 02:56:45;;;;;;;;;;;;;;;;;;1048961;27;3935;-50
2022/06/14 02:57:34;;;;;;;;;;;;;;;;;;1050108;28;3933;-47
2022/06/14 02:58:25;;;;;;;;;;;;;;;;;;1050259;28;1412;-44
2022/06/14 02:59:19;;;;;;;;;;;;;;;;;;1049280;28;4003;-48
2022/06/14 03:00:11;;;;;;;;;;;;;;;;;;1049745;28;4008;-48
2022/06/14 03:01:06;;;;;;;;;;;;;;;;;;1049982;28;3760;-49
2022/06/14 03:01:58;;;;;;;;;;;;;;;;;;1047088;28;3823;-50
2022/06/14 03:02:47;;;;;;;;;;;;;;;;;;1047891;28;4275;-45
2022/06/14 03:03:44;;;;;;;;;;;;;;;;;;1049510;28;4259;-44
2022/06/14 03:04:33;;;;;;;;;;;;;;;;;;1047699;28;4048;-46
2022/06/14 03:05:29;;;;;;;;;;;;;;;;;;1051419;28;3121;-45
2022/06/14 03:06:18;;;;;;;;;;;;;;;;;;1049898;28;3999;-49
2022/06/14 03:07:14;;;;;;;;;;;;;;;;;;1051093;28;3999;-49
2022/06/14 03:08:09;;;;;;;;;;;;;;;;;;1049323;28;4153;-48
2022/06/14 03:09:08;;;;;;;;;;;;;;;;;;1049915;28;3876;-49
2022/06/14 03:09:58;;;;;;;;;;;;;;;;;;1050172;28;4296;-46
2022/06/14 03:11:16;;;;;;;;;;;;;;;;;;1049034;28;3904;-44
2022/06/14 03:12:08;;;;;;;;;;;;;;;;;;1050587;28;4910;-50
2022/06/14 03:13:02;;;;;;;;;;;;;;;;;;1049576;28;3903;-46
2022/06/14 03:13:56;;;;;;;;;;;;;;;;;;1049003;28;4208;-45
2022/06/14 03:15:05;;;;;;;;;;;;;;;;;;1044509;28;3916;-48
2022/06/14 03:16:13;;;;;;;;;;;;;;;;;;1045569;28;3882;-48
2022/06/14 03:17:20;;;;;;;;;;;;;;;;;;1050292;28;4182;-47
2022/06/14 03:18:21;;;;;;;;;;;;;;;;;;1049382;28;4047;-46
2022/06/14 03:19:25;;;;;;;;;;;;;;;;;;1049747;28;4014;-47
2022/06/14 03:20:07;;;;;;;;;;;;;;;;;;1050255;28;4238;-44
2022/06/14 03:20:44;;;;;;;;;;;;;;;;;;1049585;28;3903;-50
2022/06/14 03:21:18;;;;;;;;;;;;;;;;;;1051114;28;2924;-51
2022/06/14 03:21:59;;;;;;;;;;;;;;;;;;1049597;28;3875;-44
2022/06/14 03:22:39;;;;;;;;;;;;;;;;;;1049384;28;3800;-47
2022/06/14 03:23:14;;;;;;;;;;;;;;;;;;1050125;28;3719;-50
2022/06/14 03:23:47;;;;;;;;;;;;;;;;;;1049291;28;3917;-47
2022/06/14 03:24:29;;;;;;;;;;;;;;;;;;1049946;28;2161;-48
2022/06/14 03:25:10;;;;;;;;;;;;;;;;;;1050025;28;3955;-46
2022/06/14 03:25:46;;;;;;;;;;;;;;;;;;1050347;28;4287;-48
2022/06/14 03:26:21;;;;;;;;;;;;;;;;;;1050769;28;3096;-48
2022/06/14 03:27:04;;;;;;;;;;;;;;;;;;1049525;28;3977;-46
2022/06/14 03:27:37;;;;;;;;;;;;;;;;;;1049239;28;3900;-47
2022/06/14 03:28:28;;;;;;;;;;;;;;;;;;1050099;28;3975;-48
2022/06/14 03:29:08;;;;;;;;;;;;;;;;;;1050525;28;3815;-48
2022/06/14 03:30:01;;;;;;;;;;;;;;;;;;1048385;28;3906;-48
2022/06/14 03:30:57;;;;;;;;;;;;;;;;;;1049213;28;3961;-46
2022/06/14 03:31:46;;;;;;;;;;;;;;;;;;1036426;28;3677;-48
2022/06/14 03:32:30;;;;;;;;;;;;;;;;;;1047284;28;4367;-47
2022/06/14 03:33:03;;;;;;;;;;;;;;;;;;1050647;28;3813;-46
2022/06/14 03:33:36;;;;;;;;;;;;;;;;;;1049533;28;3787;-43
2022/06/14 03:34:38;;;;;;;;;;;;;;;;;;1050197;28;2753;-50
2022/06/14 03:35:30;;;;;;;;;;;;;;;;;;1050750;28;3766;-44
2022/06/14 03:36:01;;;;;;;;;;;;;;;;;;1049938;28;3667;-45
2022/06/14 03:36:32;;;;;;;;;;;;;;;;;;1050834;28;3878;-49
2022/06/14 03:37:02;;;;;;;;;;;;;;;;;;1050099;28;2996;-45
2022/06/14 03:37:32;;;;;;;;;;;;;;;;;;1048837;28;3875;-48
2022/06/14 03:38:06;;;;;;;;;;;;;;;;;;1050315;28;4037;-46
2022/06/14 03:38:42;;;;;;;;;;;;;;;;;;1050307;28;4052;-51
2022/06/14 03:39:18;;;;;;;;;;;;;;;;;;1050007;28;2874;-47
2022/06/14 03:39:58;;;;;;;;;;;;;;;;;;1049936;28;3737;-45
2022/06/14 03:40:29;;;;;;;;;;;;;;;;;;1051306;28;1743;-45
2022/06/14 03:40:59;;;;;;;;;;;;;;;;;;1049829;28;4167;-47
2022/06/14 03:41:30;;;;;;;;;;;;;;;;;;1050307;28;6477;-48
2022/06/14 03:42:03;;;;;;;;;;;;;;;;;;1049439;28;3803;-47
2022/06/14 03:42:34;;;;;;;;;;;;;;;;;;1050539;28;3755;-46
2022/06/14 03:43:04;;;;;;;;;;;;;;;;;;1050291;28;3119;-46
2022/06/14 03:43:36;;;;;;;;;;;;;;;;;;1050176;28;3879;-46
2022/06/14 03:44:06;;;;;;;;;;;;;;;;;;1049747;28;3169;-48
2022/06/14 03:44:37;;;;;;;;;;;;;;;;;;1049662;27;3879;-45
2022/06/14 03:45:08;;;;;;;;;;;;;;;;;;1049416;27;3814;-47
2022/06/14 03:45:49;;;;;;;;;;;;;;;;;;1051818;28;4231;-49
2022/06/14 03:46:22;;;;;;;;;;;;;;;;;;1051409;28;3683;-49
2022/06/14 03:47:11;;;;;;;;;;;;;;;;;;1051289;28;4284;-43
2022/06/14 03:47:41;;;;;;;;;;;;;;;;;;1051564;28;4413;-45
2022/06/14 03:48:12;;;;;;;;;;;;;;;;;;1045674;28;3189;-49
2022/06/14 03:48:44;;;;;;;;;;;;;;;;;;1046577;28;3877;-45
2022/06/14 03:49:17;;;;;;;;;;;;;;;;;;1042761;28;2960;-46
2022/06/14 03:49:50;;;;;;;;;;;;;;;;;;1042855;28;3895;-47
2022/06/14 03:50:26;;;;;;;;;;;;;;;;;;1045813;28;1808;-50
2022/06/14 03:51:03;;;;;;;;;;;;;;;;;;1047984;28;4171;-47
2022/06/14 03:51:51;;;;;;;;;;;;;;;;;;1049891;28;3887;-47
2022/06/14 03:52:37;;;;;;;;;;;;;;;;;;1050521;27;3552;-52
2022/06/14 03:53:13;;;;;;;;;;;;;;;;;;1050914;28;3838;-45
2022/06/14 03:53:47;;;;;;;;;;;;;;;;;;1050811;27;4212;-45
2022/06/14 03:54:31;;;;;;;;;;;;;;;;;;1051023;27;3690;-44
2022/06/14 03:55:02;;;;;;;;;;;;;;;;;;1047970;28;3697;-46
2022/06/14 03:55:32;;;;;;;;;;;;;;;;;;1048856;28;3805;-52
2022/06/14 03:56:22;;;;;;;;;;;;;;;;;;1048722;28;3082;-45
2022/06/14 03:56:59;;;;;;;;;;;;;;;;;;1037264;28;4083;-47
2022/06/14 03:57:35;;;;;;;;;;;;;;;;;;1046727;28;1637;-46
2022/06/14 03:58:06;;;;;;;;;;;;;;;;;;1041464;28;3722;-45
2022/06/14 03:58:48;;;;;;;;;;;;;;;;;;1040672;28;4285;-48
2022/06/14 03:59:21;;;;;;;;;;;;;;;;;;1042154;28;2750;-47
2022/06/14 03:59:52;;;;;;;;;;;;;;;;;;1042104;28;3914;-49
2022/06/14 04:00:28;;;;;;;;;;;;;;;;;;1048577;28;1882;-47
2022/06/14 04:01:03;;;;;;;;;;;;;;;;;;1050336;28;3795;-46
2022/06/14 04:01:46;;;;;;;;;;;;;;;;;;1051107;28;3932;-45
2022/06/14 04:02:52;;;;;;;;;;;;;;;;;;1046151;28;3776;-47
2022/06/14 04:03:32;;;;;;;;;;;;;;;;;;1045421;28;3745;-49
2022/06/14 04:04:21;;;;;;;;;;;;;;;;;;1052581;27;3784;-44
2022/06/14 04:04:58;;;;;;;;;;;;;;;;;;1053855;27;4200;-44
2022/06/14 04:05:34;;;;;;;;;;;;;;;;;;1054527;28;4266;-46
2022/06/14 04:06:15;;;;;;;;;;;;;;;;;;1050813;28;3673;-47
2022/06/14 04:06:48;;;;;;;;;;;;;;;;;;1046467;28;3862;-44
2022/06/14 04:07:22;;;;;;;;;;;;;;;;;;1046433;28;2745;-45
2022/06/14 04:07:58;;;;;;;;;;;;;;;;;;1046752;28;3872;-48
2022/06/14 04:08:51;;;;;;;;;;;;;;;;;;1048767;28;1683;-44
2022/06/14 04:09:40;;;;;;;;;;;;;;;;;;1050522;27;3750;-44
2022/06/14 04:10:10;;;;;;;;;;;;;;;;;;1050504;27;4015;-48
2022/06/14 04:10:59;;;;;;;;;;;;;;;;;;1050610;27;3873;-50
2022/06/14 04:11:30;;;;;;;;;;;;;;;;;;1050235;27;3784;-47
2022/06/14 04:12:19;;;;;;;;;;;;;;;;;;1051270;28;3751;-51
2022/06/14 04:12:59;;;;;;;;;;;;;;;;;;1050637;28;3975;-45
2022/06/14 04:13:43;;;;;;;;;;;;;;;;;;1050712;28;2712;-45
2022/06/14 04:14:20;;;;;;;;;;;;;;;;;;1051463;27;3795;-45
2022/06/14 04:15:03;;;;;;;;;;;;;;;;;;1049073;28;3923;-47
2022/06/14 04:15:42;;;;;;;;;;;;;;;;;;1044664;28;4360;-46
2022/06/14 04:16:33;;;;;;;;;;;;;;;;;;1046458;28;2962;-49
2022/06/14 04:17:18;;;;;;;;;;;;;;;;;;1037411;28;3676;-46
2022/06/14 04:17:57;;;;;;;;;;;;;;;;;;1041133;28;3899;-47
2022/06/14 04:18:34;;;;;;;;;;;;;;;;;;1049145;28;2516;-45
2022/06/14 04:19:22;;;;;;;;;;;;;;;;;;1044450;28;4801;-45
2022/06/14 04:20:11;;;;;;;;;;;;;;;;;;1041706;28;4012;-48
2022/06/14 04:20:43;;;;;;;;;;;;;;;;;;1045364;28;3822;-43
2022/06/14 04:21:32;;;;;;;;;;;;;;;;;;1052148;27;4291;-43
2022/06/14 04:22:02;;;;;;;;;;;;;;;;;;1051295;27;3942;-49
2022/06/14 04:22:50;;;;;;;;;;;;;;;;;;1049871;27;3811;-49
2022/06/14 04:23:36;;;;;;;;;;;;;;;;;;1049658;28;2918;-48
2022/06/14 04:24:25;;;;;;;;;;;;;;;;;;1049593;28;3933;-46
2022/06/14 04:25:01;;;;;;;;;;;;;;;;;;1048044;28;4012;-48
2022/06/14 04:25:32;;;;;;;;;;;;;;;;;;1050005;28;3882;-44
2022/06/14 04:26:19;;;;;;;;;;;;;;;;;;1050223;28;2809;-45